This is the latest recevied weather packets stored in our database for station/object BMCB-9. If no packets are shown the sender has not sent any weather packets the latest 10 day(s).
| Time | Temp. | Humidity | Pressure | Rain* | Wind** | Luminosity | Snow |
|---|---|---|---|---|---|---|---|
| 1777881657 | 13.89° C | 92% | 1013.7 hPa | 0 mm | - | 108 W/m² | - |
| 1777879260 | 13.33° C | 96% | 1013.3 hPa | 0 mm | - | 86 W/m² | - |
| 1777872656 | 11.11° C | 99% | 1013 hPa | 0 mm | - | 24 W/m² | - |
| 1777869656 | 10° C | 10% | 1012.8 hPa | 0 mm | - | - | - |
| 1777861854 | 10.56° C | 99% | 1012.3 hPa | 0 mm | - | 0 W/m² | - |
| 1777860656 | 10.56° C | 98% | 1012.2 hPa | 0 mm | - | 0 W/m² | - |
| 1777860055 | 10.56° C | 98% | 1012.1 hPa | 0 mm | - | 0 W/m² | - |
| 1777858855 | 11.11° C | 99% | 1011.9 hPa | 0 mm | - | 0 W/m² | - |
| 1777857056 | 11.11° C | 98% | 1012.1 hPa | 0 mm | - | 0 W/m² | - |
| 1777855255 | 11.11° C | 98% | 1012 hPa | 0 mm | - | 0 W/m² | - |
| 1777853456 | 11.67° C | 98% | 1012.3 hPa | 0 mm | - | 0 W/m² | - |
| 1777848059 | 12.22° C | 98% | 1012.3 hPa | 0 mm | - | 0 W/m² | - |
| 1777845060 | 12.78° C | 97% | 1012.5 hPa | 0 mm | - | 0 W/m² | - |
| 1777843260 | 13.33° C | 96% | 1012.4 hPa | 0 mm | - | 0 W/m² | - |
| 1777842659 | 13.33° C | 96% | 1012.5 hPa | 0 mm | - | 0 W/m² | - |
| 1777840859 | 13.33° C | 95% | 1012.5 hPa | 0 mm | - | 0 W/m² | - |
| 1777837860 | 13.89° C | 94% | 1012.1 hPa | 0 mm | - | 0 W/m² | - |
| 1777837260 | 13.89° C | 94% | 1012.2 hPa | 0 mm | - | 0 W/m² | - |
| 1777833057 | 14.44° C | 90% | 1011.8 hPa | 0 mm | - | 2 W/m² | - |
| 1777819857 | 15.56° C | 88% | 1011.9 hPa | 0 mm | - | 82 W/m² | - |
| 1777810856 | 13.89° C | 96% | 1012.5 hPa | 1.78 mm | - | 152 W/m² | - |
| 1777803657 | 13.89° C | 93% | 1012.5 hPa | 2.29 mm | - | 156 W/m² | - |
| 1777798856 | 15° C | 81% | 1012.3 hPa | 0.51 mm | - | 94 W/m² | - |
| 1777798255 | 15.56° C | 78% | 1012.2 hPa | 0.25 mm | - | 82 W/m² | - |
| 1777797053 | 15.56° C | 74% | 1012 hPa | 0 mm | - | 90 W/m² | - |
* Rain latest hour (hover to see other rain measurements)
** Current wind speed in m/s (hover to see current wind gust speed)